Thunder radar more information blitzortung!


Radar de pluja more information rain snow radar


Visita la nostra xarxa de llocs de meteo:

Template documentation
and downloads

And another site



No particular awareness of the weather is required.    There are no Weather-warnings

Pagina Historial Weather Underground text

Diari Resum February 5, 2018 Unitats:  Mètric    Imperial   Tant
« Previous Dia
SegĂźent Dia »
Diari Setmana Mensual Anual Personalitzada
  Maxima: Minima: Media:
Temperatura: -17.8 °C -15.6 °C -14.4 °C
Punt de rosada: -17.8 °C -16.9 °C -15.4 °C
Humitat: Humidity % 85 % 89 %
Wind Speed: 0 km/h 0 km/h 9.2 km/h
RĂ fegues de vent: 0 km/h - -
Vent:- - East
Pression baro: 0 hPa 34097 hPa -
Precipitacions: 632.46 mm    
Historical Graphs
 
 
Dades de taula per February 5, 2018
Temps Temperatura Punt de rosada Pression baro Vent Wind Speed RĂ fegues de vent Humitat Rainfall Rate (Hourly)
-17.8 °C -17.8 °C 0 hPa Calm     Humidity % 0 mm
00:00 -15.2 °C -16.2 °C 34097 hPa NNE 7.7 km/h 12.9 km/h 88 % 0 mm
00:01 -15.3 °C -16.6 °C 34198.6 hPa NNE 7.6 km/h 7.6 km/h 85 % 0 mm
00:06 -15.3 °C -16.6 °C 34198.6 hPa NE 11.9 km/h 11.9 km/h 85 % 0 mm
00:10 -15.2 °C -16.2 °C 34097 hPa NNE 12.9 km/h 15.6 km/h 88 % 0 mm
00:11 -15.3 °C -16.6 °C 34198.6 hPa NNE 11.9 km/h 11.9 km/h 85 % 0 mm
00:16 -15.3 °C -16.6 °C 34198.6 hPa NNE 10.3 km/h 10.3 km/h 85 % 0 mm
00:20 -15.2 °C -16.2 °C 34097 hPa NNE 7.7 km/h 10.3 km/h 88 % 0 mm
00:21 -15.3 °C -16.6 °C 34198.6 hPa NNE 17.9 km/h 17.9 km/h 85 % 0 mm
00:26 -15.3 °C -16.6 °C 34198.6 hPa NNE 11.9 km/h 11.9 km/h 85 % 0 mm
00:30 -15.2 °C -16.2 °C 34097 hPa NNE 7.7 km/h 12.9 km/h 88 % 0 mm
00:31 -15.3 °C -16.6 °C 34198.6 hPa NE 6 km/h 6 km/h 85 % 0 mm
00:36 -15.3 °C -16.6 °C 34198.6 hPa NNW 6 km/h 6 km/h 85 % 0 mm
00:40 -15.2 °C -16.2 °C 34097 hPa NNE 5.1 km/h 10.3 km/h 88 % 0 mm
00:41 -15.3 °C -16.6 °C 34198.6 hPa NNE 11.9 km/h 11.9 km/h 85 % 0 mm
00:46 -15.3 °C -16.6 °C 34198.6 hPa NNE 11.9 km/h 11.9 km/h 85 % 0 mm
00:50 -15.2 °C -16.2 °C 34097 hPa NNE 12.9 km/h 12.9 km/h 88 % 0 mm
00:51 -15.3 °C -16.6 °C 34198.6 hPa NW 9 km/h 9 km/h 85 % 0 mm
00:56 -15.3 °C -16.6 °C 34198.6 hPa NNE 9 km/h 9 km/h 85 % 0 mm
01:00 -15.1 °C -16 °C 34097 hPa NE 18.2 km/h 18.2 km/h 89 % 0 mm
01:01 -15.4 °C -16.7 °C 34198.6 hPa NNE 10.3 km/h 10.3 km/h 85 % 0 mm
01:06 -15.4 °C -16.7 °C 34198.6 hPa ENE 9 km/h 9 km/h 85 % 0 mm
01:11 -15.4 °C -16.7 °C 34198.6 hPa NNW 9 km/h 9 km/h 85 % 0 mm
01:16 -15.4 °C -16.7 °C 34198.6 hPa NNE 6.3 km/h 6.3 km/h 85 % 0 mm
01:20 -14.9 °C -15.8 °C 34097 hPa NNE 7.7 km/h 18.2 km/h 89 % 0 mm
01:21 -15.5 °C -16.8 °C 34198.6 hPa NE 15 km/h 15 km/h 85 % 0 mm
01:26 -15.5 °C -16.8 °C 34198.6 hPa NNE 17.9 km/h 17.9 km/h 85 % 0 mm
01:31 -15.6 °C -16.8 °C 34164.7 hPa NNE 20.9 km/h 20.9 km/h 85 % 0 mm
01:36 -15.6 °C -16.8 °C 34164.7 hPa NNE 15 km/h 15 km/h 85 % 0 mm
01:40 -14.8 °C -15.8 °C 34097 hPa NNE 7.7 km/h 10.3 km/h 89 % 0 mm
01:41 -15.6 °C -16.9 °C 34164.7 hPa NNE 15 km/h 15 km/h 85 % 0 mm
01:46 -15.6 °C -16.9 °C 34198.6 hPa NE 9 km/h 9 km/h 85 % 0 mm
01:50 -14.8 °C -15.6 °C 34097 hPa NNE 5.1 km/h 12.9 km/h 90 % 0 mm
01:51 -15.6 °C -16.9 °C 34198.6 hPa ENE 9 km/h 9 km/h 85 % 0 mm
01:56 -15.6 °C -16.9 °C 34198.6 hPa ENE 6 km/h 6 km/h 85 % 0 mm
02:00 -14.7 °C -15.6 °C 34097 hPa NE 12.9 km/h 12.9 km/h 90 % 0 mm
02:01 -15.6 °C -16.9 °C 34164.7 hPa NNE 11.9 km/h 11.9 km/h 85 % 0 mm
02:10 -14.7 °C -15.6 °C 34097 hPa NE 12.9 km/h 12.9 km/h 90 % 0 mm
02:20 -14.8 °C -15.6 °C 34130.9 hPa NNE 2.6 km/h 12.9 km/h 90 % 0 mm
02:30 -14.8 °C -15.7 °C 34130.9 hPa Calm   5.1 km/h 89 % 33.02 mm
02:40 -14.8 °C -15.6 °C 34097 hPa Calm   7.7 km/h 90 % 33.02 mm
02:50 -14.7 °C -15.6 °C 34130.9 hPa NE 2.6 km/h 5.1 km/h 90 % 0 mm
03:00 -14.7 °C -15.5 °C 34130.9 hPa NNE 5.1 km/h 10.3 km/h 90 % 0 mm
03:10 -14.6 °C -15.4 °C 34097 hPa Calm   7.7 km/h 90 % 20.32 mm
03:20 -14.6 °C -15.4 °C 34097 hPa Calm   2.6 km/h 90 % 20.32 mm
09:24 -14.6 °C -15.4 °C 34097 hPa SW 3.1 km/h 10.3 km/h 90 % 50.8 mm
09:29 -14.6 °C -15.4 °C 34130.9 hPa SW 10.3 km/h 10.3 km/h 90 % 50.8 mm
09:34 -14.6 °C -15.4 °C 34130.9 hPa WSW 6 km/h 6 km/h 90 % 50.8 mm
09:39 -14.6 °C -15.4 °C 34130.9 hPa Calm     90 % 50.8 mm
09:44 -14.6 °C -15.4 °C 34130.9 hPa Calm     90 % 50.8 mm
09:49 -14.6 °C -15.4 °C 34130.9 hPa NNE 3.1 km/h 3.1 km/h 90 % 50.8 mm
09:54 -14.6 °C -15.4 °C 34130.9 hPa ENE 9.8 km/h 9.8 km/h 90 % 50.8 mm
09:59 -14.6 °C -15.4 °C 34130.9 hPa ENE 9 km/h   90 % 20.32 mm
10:04 -14.6 °C -15.4 °C 34130.9 hPa NE 9 km/h 9 km/h 90 % 20.32 mm
10:09 -14.6 °C -15.4 °C 34130.9 hPa West 3.1 km/h 3.1 km/h 90 % 20.32 mm
10:14 -14.5 °C -15.3 °C 34130.9 hPa NNE 2.3 km/h   90 % 20.32 mm
10:20 -14.6 °C -15.4 °C 34130.9 hPa NNE 6 km/h 6 km/h 90 % 0 mm
10:25 -14.6 °C -15.4 °C 34130.9 hPa NNW 9 km/h 9 km/h 90 % 0 mm
10:30 -14.6 °C -15.4 °C 34130.9 hPa NE 8.5 km/h 8.5 km/h 90 % 0 mm
10:35 -14.6 °C -15.4 °C 34130.9 hPa NNE 11.9 km/h 11.9 km/h 90 % 0 mm
10:40 -14.6 °C -15.4 °C 34130.9 hPa NNE 20.9 km/h 20.9 km/h 90 % 116.84 mm
10:45 -14.7 °C -15.5 °C 34130.9 hPa NE 9.8 km/h 9.8 km/h 90 % 116.84 mm
10:50 -14.7 °C -15.5 °C 34130.9 hPa North 15 km/h 15 km/h 90 % 116.84 mm
10:55 -14.6 °C -15.4 °C 34130.9 hPa ENE 11.9 km/h 11.9 km/h 90 % 116.84 mm
11:00 -14.6 °C -15.4 °C 34130.9 hPa ENE 15 km/h 15 km/h 90 % 116.84 mm
11:05 -14.6 °C -15.4 °C 34130.9 hPa NE 15 km/h 15 km/h 90 % 116.84 mm
11:10 -14.6 °C -15.4 °C 34130.9 hPa NNE 11.9 km/h 11.9 km/h 90 % 116.84 mm
11:15 -14.6 °C -15.4 °C 34097 hPa NNE 9 km/h 9 km/h 90 % 116.84 mm
11:20 -14.6 °C -15.3 °C 34097 hPa NNE 11.9 km/h 11.9 km/h 91 % 116.84 mm
11:25 -14.6 °C -15.3 °C 34097 hPa NNE 15 km/h 15 km/h 91 % 116.84 mm
11:30 -14.5 °C -15.2 °C 34097 hPa NE 11.1 km/h 11.1 km/h 91 % 116.84 mm
11:35 -14.5 °C -15.3 °C 34097 hPa NNE 17.9 km/h 17.9 km/h 90 % 116.84 mm
11:40 -14.5 °C -15.3 °C 34097 hPa NE 17.9 km/h 17.9 km/h 90 % 0 mm
11:45 -14.4 °C -15.3 °C 34130.9 hPa NNE 17.9 km/h 17.9 km/h 90 % 0 mm
11:50 -14.4 °C -15.3 °C 34130.9 hPa ENE 9.8 km/h 9.8 km/h 90 % 0 mm
11:55 -14.4 °C -15.3 °C 34130.9 hPa NNE 11.9 km/h 11.9 km/h 90 % 0 mm
12:00 -14.4 °C -15.2 °C 34130.9 hPa NNE 14 km/h 14 km/h 91 % 0 mm
12:05 -14.4 °C -15.2 °C 34130.9 hPa NNE 12.2 km/h 12.2 km/h 91 % 0 mm
12:10 -14.4 °C -15.2 °C 34130.9 hPa North 3.1 km/h   91 % 0 mm
12:15 -14.4 °C -15.2 °C 34130.9 hPa NNE 3.1 km/h 3.1 km/h 91 % 0 mm
12:20 -14.3 °C -15.1 °C 34130.9 hPa NNE 6.3 km/h 6.3 km/h 91 % 0 mm
12:25 -14.3 °C -15.1 °C 34130.9 hPa ENE 6 km/h 6 km/h 91 % 0 mm
12:30 -14.3 °C -15.1 °C 34130.9 hPa NE 9 km/h 9 km/h 91 % 0 mm
12:35 -14.2 °C -14.9 °C 34130.9 hPa NNE 11.9 km/h 11.9 km/h 91 % 0 mm
12:40 -14.2 °C -14.9 °C 34130.9 hPa North 8 km/h 8 km/h 91 % 0 mm
12:45 -14.2 °C -14.9 °C 34130.9 hPa Calm     91 % 0 mm
12:50 -14.1 °C -14.9 °C 34130.9 hPa SSW 5.1 km/h 5.1 km/h 91 % 0 mm
12:55 -14.1 °C -14.9 °C 34130.9 hPa Calm     91 % 0 mm
13:00 -14 °C -14.8 °C 34130.9 hPa SSW 3.7 km/h   91 % 0 mm
13:05 -14.1 °C -14.8 °C 34130.9 hPa WSW 23.8 km/h 23.8 km/h 91 % 0 mm
13:10 -14.1 °C -14.8 °C 34130.9 hPa WSW 9 km/h 9 km/h 91 % 0 mm
13:15 -14.1 °C -14.8 °C 34130.9 hPa West 9 km/h 9 km/h 91 % 0 mm
13:20 -14 °C -14.8 °C 34130.9 hPa WSW 10.3 km/h 10.3 km/h 91 % 0 mm
13:25 -14.1 °C -14.8 °C 34130.9 hPa West 6.8 km/h 6.8 km/h 91 % 0 mm
13:30 -14.1 °C -14.9 °C 34130.9 hPa WSW 11.9 km/h 11.9 km/h 90 % 0 mm
13:35 -14 °C -14.8 °C 34130.9 hPa WSW 9 km/h 9 km/h 91 % 0 mm
13:40 -14.1 °C -14.8 °C 34130.9 hPa SW 9 km/h 9 km/h 91 % 0 mm
13:45 -14.1 °C -14.8 °C 34130.9 hPa WSW 3.1 km/h   91 % 0 mm
13:50 -14.1 °C -14.9 °C 34130.9 hPa SW 3.1 km/h   91 % 180.34 mm
13:55 -14.1 °C -14.9 °C 34130.9 hPa Calm     91 % 180.34 mm
14:00 -14.1 °C -14.8 °C 34130.9 hPa NNE 3.1 km/h   91 % 180.34 mm
14:05 -14.1 °C -14.8 °C 34130.9 hPa WNW 6 km/h 6 km/h 91 % 180.34 mm
14:10 -14.1 °C -14.8 °C 34130.9 hPa WNW 3.1 km/h   91 % 180.34 mm
14:15 -14.1 °C -14.8 °C 34130.9 hPa North 8 km/h   91 % 180.34 mm
14:20 -14.1 °C -14.8 °C 34130.9 hPa NE 8 km/h 8 km/h 91 % 180.34 mm
14:25 -14.1 °C -14.8 °C 34130.9 hPa ENE 12.2 km/h 12.2 km/h 91 % 180.34 mm
14:30 -14.1 °C -14.8 °C 34130.9 hPa North 15 km/h 15 km/h 91 % 180.34 mm
14:35 -14.1 °C -14.9 °C 34130.9 hPa NNE 10.3 km/h 10.3 km/h 91 % 180.34 mm
14:40 -14.1 °C -14.8 °C 34130.9 hPa NNW 9 km/h 9 km/h 91 % 180.34 mm
14:45 -14.1 °C -14.8 °C 34097 hPa NNW 6 km/h 6 km/h 91 % 180.34 mm
14:50 -14.1 °C -14.8 °C 34097 hPa NE 6 km/h   91 % 0 mm
14:55 -14.1 °C -14.8 °C 34097 hPa ENE 3.1 km/h 3.1 km/h 91 % 0 mm
15:00 -14.1 °C -14.8 °C 34130.9 hPa NE 11.1 km/h 11.1 km/h 91 % 0 mm
15:05 -14.1 °C -14.9 °C 34130.9 hPa NW 9 km/h 9 km/h 91 % 0 mm
15:10 -14.2 °C -14.9 °C 34130.9 hPa NNE 15 km/h 15 km/h 91 % 0 mm
15:15 -14.2 °C -14.9 °C 34097 hPa ENE 9 km/h 9 km/h 91 % 0 mm
15:20 -14.1 °C -14.9 °C 34097 hPa NNE 9 km/h 9 km/h 91 % 0 mm
15:25 -14.1 °C -14.9 °C 34097 hPa North 11.9 km/h 11.9 km/h 91 % 0 mm
15:30 -14.2 °C -14.9 °C 34097 hPa NNE 17.9 km/h 17.9 km/h 91 % 0 mm
15:35 -14.2 °C -14.9 °C 34097 hPa NNE 11.9 km/h 11.9 km/h 91 % 0 mm
15:40 -14.2 °C -14.9 °C 34097 hPa ENE 16.6 km/h 16.6 km/h 91 % 0 mm
15:45 -14.2 °C -15 °C 34130.9 hPa NNE 15 km/h 15 km/h 90 % 0 mm
15:50 -14.2 °C -15 °C 34130.9 hPa ENE 15 km/h 15 km/h 90 % 0 mm
15:55 -14.2 °C -15 °C 34130.9 hPa NNW 17.9 km/h 17.9 km/h 90 % 0 mm
16:00 -14.2 °C -15 °C 34130.9 hPa ENE 15.6 km/h 15.6 km/h 90 % 0 mm
16:05 -14.2 °C -15 °C 34130.9 hPa NNE 15.6 km/h 15.6 km/h 90 % 0 mm
16:10 -14.2 °C -15.1 °C 34130.9 hPa NNE 15 km/h 15 km/h 90 % 0 mm
16:15 -14.2 °C -15.1 °C 34097 hPa SE 15 km/h 15 km/h 90 % 0 mm
16:20 -14.3 °C -15.1 °C 34097 hPa ENE 15 km/h 15 km/h 90 % 0 mm
16:25 -14.2 °C -15.1 °C 34097 hPa NNE 11.9 km/h 11.9 km/h 90 % 0 mm
16:30 -14.3 °C -15.1 °C 34130.9 hPa NNW 22.5 km/h 22.5 km/h 90 % 0 mm
16:35 -14.3 °C -15.1 °C 34130.9 hPa NNE 11.9 km/h 11.9 km/h 90 % 0 mm
16:40 -14.3 °C -15.2 °C 34130.9 hPa NE 15 km/h 15 km/h 90 % 0 mm
16:45 -14.3 °C -15.2 °C 34130.9 hPa NNE 15 km/h 15 km/h 90 % 0 mm
16:50 -14.3 °C -15.2 °C 34130.9 hPa NNE 15 km/h 15 km/h 90 % 0 mm
16:55 -14.3 °C -15.3 °C 34130.9 hPa NNE 15 km/h 15 km/h 89 % 0 mm
17:00 -14.4 °C -15.3 °C 34130.9 hPa ENE 15 km/h 15.3 km/h 89 % 0 mm
17:05 -14.3 °C -15.3 °C 34130.9 hPa NNE 26.9 km/h 26.9 km/h 89 % 0 mm
17:10 -14.3 °C -15.4 °C 34130.9 hPa ENE 17.9 km/h 17.9 km/h 88 % 0 mm
17:15 -14.3 °C -15.4 °C 34130.9 hPa NNE 11.9 km/h 11.9 km/h 88 % 0 mm
17:20 -14.3 °C -15.4 °C 34130.9 hPa NNW 15 km/h 15 km/h 88 % 0 mm
17:25 -14.3 °C -15.4 °C 34130.9 hPa ENE 9 km/h 9 km/h 88 % 0 mm
17:30 -14.3 °C -15.4 °C 34130.9 hPa NNE 11.1 km/h 11.1 km/h 88 % 0 mm
17:35 -14.4 °C -15.4 °C 34130.9 hPa NNE 11.9 km/h 11.9 km/h 88 % 0 mm
17:40 -14.4 °C -15.4 °C 34130.9 hPa NNE 11.9 km/h 11.9 km/h 88 % 0 mm
17:45 -14.4 °C -15.4 °C 34130.9 hPa NW 11.9 km/h 11.9 km/h 88 % 0 mm
17:50 -14.4 °C -15.4 °C 34130.9 hPa NNE 11.9 km/h 11.9 km/h 89 % 0 mm
17:55 -14.4 °C -15.4 °C 34130.9 hPa ENE 6 km/h 6.8 km/h 89 % 0 mm
18:00 -14.4 °C -15.4 °C 34130.9 hPa NNE 15 km/h 15 km/h 89 % 0 mm
18:05 -14.4 °C -15.3 °C 34130.9 hPa NE 11.1 km/h 11.1 km/h 89 % 0 mm
18:10 -14.4 °C -15.3 °C 34130.9 hPa NNE 11.9 km/h 11.9 km/h 89 % 0 mm
18:15 -14.3 °C -15.3 °C 34130.9 hPa NNW 15.6 km/h 15.6 km/h 89 % 0 mm
18:20 -14.3 °C -15.3 °C 34130.9 hPa NNE 17.9 km/h 17.9 km/h 89 % 0 mm
18:25 -14.3 °C -15.2 °C 34130.9 hPa East 15 km/h 15 km/h 89 % 0 mm
18:30 -14.3 °C -15.2 °C 34130.9 hPa ENE 11.9 km/h 11.9 km/h 89 % 0 mm
18:35 -14.3 °C -15.3 °C 34130.9 hPa NNE 7.6 km/h 7.6 km/h 89 % 0 mm
18:40 -14.3 °C -15.3 °C 34130.9 hPa NNW 11.9 km/h 11.9 km/h 89 % 0 mm
18:45 -14.3 °C -15.3 °C 34130.9 hPa NNE 9 km/h 9 km/h 89 % 0 mm
18:50 -14.3 °C -15.3 °C 34130.9 hPa North 6 km/h 6 km/h 89 % 0 mm
18:55 -14.3 °C -15.3 °C 34130.9 hPa NNE 6 km/h 6 km/h 89 % 0 mm
19:00 -14.3 °C -15.3 °C 34130.9 hPa NNE 6 km/h 6 km/h 89 % 0 mm
19:05 -14.3 °C -15.3 °C 34130.9 hPa NNE 12.2 km/h 12.2 km/h 89 % 0 mm
19:10 -14.3 °C -15.2 °C 34130.9 hPa ENE 14 km/h 14 km/h 89 % 0 mm
19:15 -14.2 °C -15.2 °C 34130.9 hPa NNE 15 km/h 15 km/h 89 % 0 mm
19:20 -14.2 °C -15.1 °C 34130.9 hPa NNE 11.9 km/h 11.9 km/h 89 % 0 mm
19:25 -14.2 °C -15.1 °C 34130.9 hPa ENE 3.1 km/h 3.1 km/h 89 % 0 mm
19:30 -14.2 °C -15.2 °C 34130.9 hPa NNE 3.1 km/h   89 % 0 mm
19:35 -14.2 °C -15.2 °C 34130.9 hPa NNE 3.7 km/h 3.7 km/h 89 % 0 mm
19:40 -14.2 °C -15.2 °C 34130.9 hPa NNE 6 km/h 6 km/h 89 % 0 mm
19:45 -14.2 °C -15.2 °C 34164.7 hPa NNE 7.6 km/h 7.6 km/h 89 % 0 mm
19:50 -14.2 °C -15.2 °C 34164.7 hPa ENE 6.8 km/h 6.8 km/h 89 % 0 mm
19:55 -14.2 °C -15.1 °C 34164.7 hPa NE 9 km/h 9 km/h 89 % 0 mm
20:00 -14.2 °C -15.1 °C 34164.7 hPa NNE 11.9 km/h 11.9 km/h 89 % 0 mm
20:05 -14.1 °C -15.1 °C 34164.7 hPa ENE 6 km/h 6 km/h 89 % 0 mm
20:10 -14.1 °C -15.1 °C 34164.7 hPa ENE 6 km/h 6 km/h 89 % 0 mm
20:15 -14.1 °C -15.1 °C 34164.7 hPa NNE 9 km/h 9 km/h 88 % 0 mm
20:20 -14.1 °C -15.1 °C 34164.7 hPa NE 12.7 km/h 12.7 km/h 88 % 0 mm
20:25 -14.1 °C -15.1 °C 34164.7 hPa NNE 17.9 km/h 17.9 km/h 88 % 0 mm
20:30 -14.2 °C -15.2 °C 34130.9 hPa NNE 11.9 km/h 11.9 km/h 88 % 0 mm
20:35 -14.2 °C -15.2 °C 34130.9 hPa NNE 12.7 km/h 12.7 km/h 88 % 0 mm
20:40 -14.2 °C -15.2 °C 34130.9 hPa NNE 11.9 km/h 11.9 km/h 88 % 0 mm
20:45 -14.2 °C -15.2 °C 34130.9 hPa NNE 15 km/h 15 km/h 88 % 0 mm
20:50 -14.2 °C -15.2 °C 34130.9 hPa NNE 12.2 km/h 12.2 km/h 88 % 0 mm
20:55 -14.2 °C -15.2 °C 34130.9 hPa NNE 15 km/h 15 km/h 88 % 0 mm
21:00 -14.2 °C -15.2 °C 34164.7 hPa NNE 15 km/h 15 km/h 88 % 0 mm
21:05 -14.2 °C -15.2 °C 34164.7 hPa NNE 11.9 km/h 11.9 km/h 88 % 0 mm
21:10 -14.2 °C -15.2 °C 34164.7 hPa NNE 6 km/h 6 km/h 88 % 0 mm
21:15 -14.2 °C -15.3 °C 34130.9 hPa ENE 6.8 km/h 6.8 km/h 87 % 0 mm
21:20 -14.2 °C -15.3 °C 34130.9 hPa NNE 6 km/h 6 km/h 87 % 0 mm
21:25 -14.2 °C -15.3 °C 34130.9 hPa NNE 9.3 km/h 9.3 km/h 87 % 0 mm
21:30 -14.2 °C -15.3 °C 34164.7 hPa NW 6 km/h 6 km/h 87 % 0 mm
21:35 -14.2 °C -15.3 °C 34164.7 hPa South 6 km/h 6 km/h 87 % 0 mm
21:40 -14.2 °C -15.3 °C 34164.7 hPa NNE 8 km/h 8 km/h 87 % 0 mm
21:45 -14.2 °C -15.3 °C 34164.7 hPa Calm     87 % 0 mm
21:50 -14.2 °C -15.3 °C 34164.7 hPa NNE 3.1 km/h   87 % 0 mm
21:55 -14.2 °C -15.3 °C 34164.7 hPa Calm     87 % 0 mm
22:00 -14.2 °C -15.3 °C 34164.7 hPa NE 3.7 km/h   87 % 0 mm
22:05 -14.2 °C -15.3 °C 34164.7 hPa NNW 6.8 km/h   87 % 0 mm
22:10 -14.2 °C -15.3 °C 34164.7 hPa ENE 3.1 km/h 3.1 km/h 87 % 0 mm
22:15 -14.2 °C -15.3 °C 34164.7 hPa Calm     87 % 0 mm
22:20 -14.2 °C -15.3 °C 34164.7 hPa NNE 6 km/h 6 km/h 87 % 0 mm
22:25 -14.2 °C -15.3 °C 34164.7 hPa NNW 3.1 km/h   87 % 0 mm
22:30 -14.2 °C -15.3 °C 34130.9 hPa NE 6 km/h 6 km/h 87 % 0 mm
22:35 -14.2 °C -15.3 °C 34130.9 hPa NE 3.1 km/h   87 % 0 mm
22:40 -14.2 °C -15.2 °C 34130.9 hPa Calm     88 % 0 mm
22:45 -14.2 °C -15.2 °C 34130.9 hPa NNE 3.1 km/h 3.7 km/h 88 % 0 mm
22:50 -14.2 °C -15.2 °C 34130.9 hPa NE 3.1 km/h   88 % 0 mm
22:55 -14.2 °C -15.2 °C 34130.9 hPa Calm     88 % 0 mm
23:00 -14.2 °C -15.2 °C 34130.9 hPa Calm     88 % 0 mm
23:05 -14.2 °C -15.2 °C 34130.9 hPa Calm     88 % 0 mm
23:10 -14.2 °C -15.2 °C 34130.9 hPa Calm     88 % 0 mm
23:15 -14.2 °C -15.2 °C 34130.9 hPa Calm     88 % 154.94 mm
23:20 -14.2 °C -15.2 °C 34130.9 hPa Calm     89 % 154.94 mm
23:25 -14.2 °C -15.2 °C 34130.9 hPa Calm     89 % 154.94 mm
23:30 -14.2 °C -15.2 °C 34130.9 hPa Calm     89 % 154.94 mm
23:35 -14.2 °C -15.2 °C 34130.9 hPa Calm     89 % 154.94 mm
23:40 -14.2 °C -15.2 °C 34130.9 hPa West 3.7 km/h   89 % 154.94 mm
23:45 -14.2 °C -15.2 °C 34130.9 hPa WSW 3.1 km/h   89 % 154.94 mm
23:50 -14.2 °C -15.2 °C 34130.9 hPa SW 9 km/h 9 km/h 89 % 154.94 mm
23:55 -14.2 °C -15.2 °C 34130.9 hPa WSW 3.1 km/h   89 % 154.94 mm
Meteo Sesrovires
Elogis d' Weather Underground - 3.75 mb

Guio original per  Jim McMurry - jmcmurry@mwt.net Adaptat per a la plantilla per  Wim van der Kuil - Leuven-Template.eu

Trobareu la nostra informacio del temps tambe a:

Weather Underground

AWEKAS